sensor_id;sensor_type;location;lat;lon;timestamp;temperature;humidity
6865;DHT22;3471;49.678;8.388;2022-12-28T00:01:41;4.50;99.90
6865;DHT22;3471;49.678;8.388;2022-12-28T00:04:01;4.50;99.90
6865;DHT22;3471;49.678;8.388;2022-12-28T00:06:27;4.50;99.90
6865;DHT22;3471;49.678;8.388;2022-12-28T00:08:56;4.50;99.90
6865;DHT22;3471;49.678;8.388;2022-12-28T00:11:24;4.50;99.90
6865;DHT22;3471;49.678;8.388;2022-12-28T00:13:49;4.60;99.90
6865;DHT22;3471;49.678;8.388;2022-12-28T00:16:26;4.60;99.90
6865;DHT22;3471;49.678;8.388;2022-12-28T00:18:53;4.60;99.90
6865;DHT22;3471;49.678;8.388;2022-12-28T00:21:18;4.60;99.90
6865;DHT22;3471;49.678;8.388;2022-12-28T00:23:47;4.60;99.90
6865;DHT22;3471;49.678;8.388;2022-12-28T00:26:13;4.60;99.90
6865;DHT22;3471;49.678;8.388;2022-12-28T00:28:39;4.60;99.90
6865;DHT22;3471;49.678;8.388;2022-12-28T00:31:05;4.60;99.90
6865;DHT22;3471;49.678;8.388;2022-12-28T00:33:31;4.60;99.90
6865;DHT22;3471;49.678;8.388;2022-12-28T00:35:59;4.60;99.90
6865;DHT22;3471;49.678;8.388;2022-12-28T00:38:26;4.60;99.90
6865;DHT22;3471;49.678;8.388;2022-12-28T00:40:51;4.60;99.90
6865;DHT22;3471;49.678;8.388;2022-12-28T00:43:17;4.60;99.90
6865;DHT22;3471;49.678;8.388;2022-12-28T00:45:44;4.60;99.90
6865;DHT22;3471;49.678;8.388;2022-12-28T00:48:10;4.60;99.90
6865;DHT22;3471;49.678;8.388;2022-12-28T00:50:36;4.70;99.90
6865;DHT22;3471;49.678;8.388;2022-12-28T00:53:02;4.70;99.90
6865;DHT22;3471;49.678;8.388;2022-12-28T00:55:27;4.70;99.90
6865;DHT22;3471;49.678;8.388;2022-12-28T00:57:53;4.70;99.90
6865;DHT22;3471;49.678;8.388;2022-12-28T01:00:18;4.70;99.90
6865;DHT22;3471;49.678;8.388;2022-12-28T01:02:44;4.70;99.90
6865;DHT22;3471;49.678;8.388;2022-12-28T01:05:10;4.70;99.90
6865;DHT22;3471;49.678;8.388;2022-12-28T01:07:35;4.70;99.90
6865;DHT22;3471;49.678;8.388;2022-12-28T01:10:01;4.70;99.90
6865;DHT22;3471;49.678;8.388;2022-12-28T01:12:28;4.60;99.90
6865;DHT22;3471;49.678;8.388;2022-12-28T01:14:53;4.60;99.90
6865;DHT22;3471;49.678;8.388;2022-12-28T01:17:19;4.60;99.90
6865;DHT22;3471;49.678;8.388;2022-12-28T01:19:44;4.70;99.90
6865;DHT22;3471;49.678;8.388;2022-12-28T01:22:10;4.70;99.90
6865;DHT22;3471;49.678;8.388;2022-12-28T01:24:36;4.80;99.90
6865;DHT22;3471;49.678;8.388;2022-12-28T01:27:01;4.80;99.90
6865;DHT22;3471;49.678;8.388;2022-12-28T01:29:27;4.80;99.90
6865;DHT22;3471;49.678;8.388;2022-12-28T01:31:53;4.90;99.90
6865;DHT22;3471;49.678;8.388;2022-12-28T01:34:18;4.90;99.90
6865;DHT22;3471;49.678;8.388;2022-12-28T01:36:44;5.00;99.90
6865;DHT22;3471;49.678;8.388;2022-12-28T01:39:09;5.00;99.90
6865;DHT22;3471;49.678;8.388;2022-12-28T01:41:37;5.00;99.90
6865;DHT22;3471;49.678;8.388;2022-12-28T01:49:02;5.00;99.90
6865;DHT22;3471;49.678;8.388;2022-12-28T01:54:07;5.10;99.90
6865;DHT22;3471;49.678;8.388;2022-12-28T01:56:33;5.10;99.90
6865;DHT22;3471;49.678;8.388;2022-12-28T01:58:59;5.10;99.90
6865;DHT22;3471;49.678;8.388;2022-12-28T02:01:25;5.10;99.90
6865;DHT22;3471;49.678;8.388;2022-12-28T02:03:51;5.10;99.90
6865;DHT22;3471;49.678;8.388;2022-12-28T02:06:16;5.10;99.90
6865;DHT22;3471;49.678;8.388;2022-12-28T02:09:05;5.20;99.90
6865;DHT22;3471;49.678;8.388;2022-12-28T02:11:32;5.20;99.90
6865;DHT22;3471;49.678;8.388;2022-12-28T02:13:59;5.20;99.90
6865;DHT22;3471;49.678;8.388;2022-12-28T02:16:26;5.30;99.90
6865;DHT22;3471;49.678;8.388;2022-12-28T02:18:51;5.30;99.90
6865;DHT22;3471;49.678;8.388;2022-12-28T02:24:52;5.30;99.90
6865;DHT22;3471;49.678;8.388;2022-12-28T02:30:06;5.30;99.90
6865;DHT22;3471;49.678;8.388;2022-12-28T02:32:58;5.40;99.90
6865;DHT22;3471;49.678;8.388;2022-12-28T02:40:59;5.50;99.90
6865;DHT22;3471;49.678;8.388;2022-12-28T02:43:25;5.50;99.90
6865;DHT22;3471;49.678;8.388;2022-12-28T02:45:51;5.50;99.90
6865;DHT22;3471;49.678;8.388;2022-12-28T02:56:41;5.50;99.90
6865;DHT22;3471;49.678;8.388;2022-12-28T03:07:29;5.60;99.90
6865;DHT22;3471;49.678;8.388;2022-12-28T03:10:22;5.60;99.90
6865;DHT22;3471;49.678;8.388;2022-12-28T03:13:03;5.50;99.90
6865;DHT22;3471;49.678;8.388;2022-12-28T03:15:35;5.60;99.90
6865;DHT22;3471;49.678;8.388;2022-12-28T03:20:54;5.50;99.90
6865;DHT22;3471;49.678;8.388;2022-12-28T03:23:41;5.60;99.90
6865;DHT22;3471;49.678;8.388;2022-12-28T03:26:26;5.60;99.90
6865;DHT22;3471;49.678;8.388;2022-12-28T03:29:13;5.60;99.90
6865;DHT22;3471;49.678;8.388;2022-12-28T03:31:59;5.60;99.90
6865;DHT22;3471;49.678;8.388;2022-12-28T03:34:25;5.70;99.90
6865;DHT22;3471;49.678;8.388;2022-12-28T03:37:15;5.70;99.90
6865;DHT22;3471;49.678;8.388;2022-12-28T03:39:48;5.70;99.90
6865;DHT22;3471;49.678;8.388;2022-12-28T03:42:34;5.80;99.90
6865;DHT22;3471;49.678;8.388;2022-12-28T03:47:54;5.80;99.90
6865;DHT22;3471;49.678;8.388;2022-12-28T03:50:21;5.80;99.90
6865;DHT22;3471;49.678;8.388;2022-12-28T03:52:47;5.80;99.90
6865;DHT22;3471;49.678;8.388;2022-12-28T03:55:14;5.90;99.90
6865;DHT22;3471;49.678;8.388;2022-12-28T03:57:40;5.90;99.90
6865;DHT22;3471;49.678;8.388;2022-12-28T04:00:07;5.90;99.90
6865;DHT22;3471;49.678;8.388;2022-12-28T04:02:35;5.90;99.90
6865;DHT22;3471;49.678;8.388;2022-12-28T04:05:01;5.90;99.90
6865;DHT22;3471;49.678;8.388;2022-12-28T04:07:26;5.90;99.90
6865;DHT22;3471;49.678;8.388;2022-12-28T04:09:52;5.90;99.90
6865;DHT22;3471;49.678;8.388;2022-12-28T04:12:18;6.00;99.90
6865;DHT22;3471;49.678;8.388;2022-12-28T04:14:43;6.00;99.90
6865;DHT22;3471;49.678;8.388;2022-12-28T04:17:09;6.00;99.90
6865;DHT22;3471;49.678;8.388;2022-12-28T04:19:34;6.00;99.90
6865;DHT22;3471;49.678;8.388;2022-12-28T04:22:00;6.00;99.90
6865;DHT22;3471;49.678;8.388;2022-12-28T04:24:26;6.00;99.90
6865;DHT22;3471;49.678;8.388;2022-12-28T04:26:51;6.00;99.90
6865;DHT22;3471;49.678;8.388;2022-12-28T04:29:17;6.10;99.90
6865;DHT22;3471;49.678;8.388;2022-12-28T04:31:42;6.10;99.90
6865;DHT22;3471;49.678;8.388;2022-12-28T04:34:08;6.10;99.90
6865;DHT22;3471;49.678;8.388;2022-12-28T04:36:33;6.10;99.90
6865;DHT22;3471;49.678;8.388;2022-12-28T04:38:59;6.20;99.90
6865;DHT22;3471;49.678;8.388;2022-12-28T04:41:25;6.20;99.90
6865;DHT22;3471;49.678;8.388;2022-12-28T04:43:53;6.30;99.90
6865;DHT22;3471;49.678;8.388;2022-12-28T04:46:19;6.30;99.90
6865;DHT22;3471;49.678;8.388;2022-12-28T04:48:44;6.30;99.90
6865;DHT22;3471;49.678;8.388;2022-12-28T04:53:41;6.30;99.90
6865;DHT22;3471;49.678;8.388;2022-12-28T04:56:07;6.40;99.90
6865;DHT22;3471;49.678;8.388;2022-12-28T04:58:34;6.40;99.90
6865;DHT22;3471;49.678;8.388;2022-12-28T05:01:10;6.40;99.90
6865;DHT22;3471;49.678;8.388;2022-12-28T05:03:38;6.40;99.90
6865;DHT22;3471;49.678;8.388;2022-12-28T05:06:06;6.40;99.90
6865;DHT22;3471;49.678;8.388;2022-12-28T05:08:33;6.40;99.90
6865;DHT22;3471;49.678;8.388;2022-12-28T05:11:00;6.40;99.90
6865;DHT22;3471;49.678;8.388;2022-12-28T05:13:26;6.40;99.90
6865;DHT22;3471;49.678;8.388;2022-12-28T05:15:52;6.40;99.90
6865;DHT22;3471;49.678;8.388;2022-12-28T05:18:17;6.40;99.90
6865;DHT22;3471;49.678;8.388;2022-12-28T05:20:43;6.40;99.90
6865;DHT22;3471;49.678;8.388;2022-12-28T05:23:08;6.50;99.90
6865;DHT22;3471;49.678;8.388;2022-12-28T05:25:34;6.50;99.90
6865;DHT22;3471;49.678;8.388;2022-12-28T05:28:00;6.50;99.90
6865;DHT22;3471;49.678;8.388;2022-12-28T05:30:25;6.50;99.90
6865;DHT22;3471;49.678;8.388;2022-12-28T05:32:51;6.50;99.90
6865;DHT22;3471;49.678;8.388;2022-12-28T05:35:16;6.50;99.90
6865;DHT22;3471;49.678;8.388;2022-12-28T05:37:42;6.50;99.90
6865;DHT22;3471;49.678;8.388;2022-12-28T05:40:08;6.50;99.90
6865;DHT22;3471;49.678;8.388;2022-12-28T05:42:34;6.50;99.90
6865;DHT22;3471;49.678;8.388;2022-12-28T05:45:00;6.50;99.90
6865;DHT22;3471;49.678;8.388;2022-12-28T05:47:26;6.50;99.90
6865;DHT22;3471;49.678;8.388;2022-12-28T05:49:52;6.50;99.90
6865;DHT22;3471;49.678;8.388;2022-12-28T05:52:17;6.50;99.90
6865;DHT22;3471;49.678;8.388;2022-12-28T05:54:43;6.50;99.90
6865;DHT22;3471;49.678;8.388;2022-12-28T05:57:09;6.50;99.90
6865;DHT22;3471;49.678;8.388;2022-12-28T05:59:34;6.50;99.90
6865;DHT22;3471;49.678;8.388;2022-12-28T06:02:00;6.50;99.90
6865;DHT22;3471;49.678;8.388;2022-12-28T06:04:25;6.50;99.90
6865;DHT22;3471;49.678;8.388;2022-12-28T06:06:51;6.50;99.90
6865;DHT22;3471;49.678;8.388;2022-12-28T06:09:18;6.50;99.90
6865;DHT22;3471;49.678;8.388;2022-12-28T06:11:44;6.60;99.90
6865;DHT22;3471;49.678;8.388;2022-12-28T06:14:10;6.60;99.90
6865;DHT22;3471;49.678;8.388;2022-12-28T06:16:39;6.60;99.90
6865;DHT22;3471;49.678;8.388;2022-12-28T06:19:07;6.60;99.90
6865;DHT22;3471;49.678;8.388;2022-12-28T06:21:36;6.60;99.90
6865;DHT22;3471;49.678;8.388;2022-12-28T06:24:03;6.60;99.90
6865;DHT22;3471;49.678;8.388;2022-12-28T06:26:30;6.60;99.90
6865;DHT22;3471;49.678;8.388;2022-12-28T06:28:56;6.60;99.90
6865;DHT22;3471;49.678;8.388;2022-12-28T06:31:27;6.60;99.90
6865;DHT22;3471;49.678;8.388;2022-12-28T06:33:55;6.60;99.90
6865;DHT22;3471;49.678;8.388;2022-12-28T06:36:24;6.70;99.90
6865;DHT22;3471;49.678;8.388;2022-12-28T06:38:51;6.70;99.90
6865;DHT22;3471;49.678;8.388;2022-12-28T06:41:18;6.60;99.90
6865;DHT22;3471;49.678;8.388;2022-12-28T06:43:45;6.70;99.90
6865;DHT22;3471;49.678;8.388;2022-12-28T06:46:15;6.70;99.90
6865;DHT22;3471;49.678;8.388;2022-12-28T06:48:41;6.70;99.90
6865;DHT22;3471;49.678;8.388;2022-12-28T06:51:19;6.70;99.90
6865;DHT22;3471;49.678;8.388;2022-12-28T06:53:46;6.70;99.90
6865;DHT22;3471;49.678;8.388;2022-12-28T06:56:15;6.80;99.90
6865;DHT22;3471;49.678;8.388;2022-12-28T06:58:41;6.80;99.90
6865;DHT22;3471;49.678;8.388;2022-12-28T07:01:07;6.80;99.90
6865;DHT22;3471;49.678;8.388;2022-12-28T07:03:34;6.80;99.90
6865;DHT22;3471;49.678;8.388;2022-12-28T07:06:03;6.80;99.90
6865;DHT22;3471;49.678;8.388;2022-12-28T07:08:29;6.80;99.90
6865;DHT22;3471;49.678;8.388;2022-12-28T07:11:07;6.90;99.90
6865;DHT22;3471;49.678;8.388;2022-12-28T07:13:33;6.90;99.90
6865;DHT22;3471;49.678;8.388;2022-12-28T07:16:04;6.90;99.90
6865;DHT22;3471;49.678;8.388;2022-12-28T07:18:31;6.90;99.90
6865;DHT22;3471;49.678;8.388;2022-12-28T07:21:03;7.00;99.90
6865;DHT22;3471;49.678;8.388;2022-12-28T07:23:29;7.00;99.90
6865;DHT22;3471;49.678;8.388;2022-12-28T07:25:56;7.00;99.90
6865;DHT22;3471;49.678;8.388;2022-12-28T07:28:23;7.00;99.90
6865;DHT22;3471;49.678;8.388;2022-12-28T07:30:49;7.00;99.90
6865;DHT22;3471;49.678;8.388;2022-12-28T07:33:14;6.90;99.90
6865;DHT22;3471;49.678;8.388;2022-12-28T07:35:40;6.90;99.90
6865;DHT22;3471;49.678;8.388;2022-12-28T07:38:05;6.90;99.90
6865;DHT22;3471;49.678;8.388;2022-12-28T07:40:31;6.80;99.90
6865;DHT22;3471;49.678;8.388;2022-12-28T07:42:59;6.80;99.90
6865;DHT22;3471;49.678;8.388;2022-12-28T07:45:25;6.80;99.90
6865;DHT22;3471;49.678;8.388;2022-12-28T07:47:50;6.80;99.90
6865;DHT22;3471;49.678;8.388;2022-12-28T07:50:16;6.80;99.90
6865;DHT22;3471;49.678;8.388;2022-12-28T07:52:41;6.90;99.90
6865;DHT22;3471;49.678;8.388;2022-12-28T07:55:07;6.90;99.90
6865;DHT22;3471;49.678;8.388;2022-12-28T07:57:33;6.90;99.90
6865;DHT22;3471;49.678;8.388;2022-12-28T07:59:59;6.90;99.90
6865;DHT22;3471;49.678;8.388;2022-12-28T08:02:24;6.90;99.90
6865;DHT22;3471;49.678;8.388;2022-12-28T08:04:50;6.90;99.90
6865;DHT22;3471;49.678;8.388;2022-12-28T08:07:15;7.00;99.90
6865;DHT22;3471;49.678;8.388;2022-12-28T08:09:41;7.00;99.90
6865;DHT22;3471;49.678;8.388;2022-12-28T08:12:06;7.00;99.90
6865;DHT22;3471;49.678;8.388;2022-12-28T08:14:32;7.10;99.90
6865;DHT22;3471;49.678;8.388;2022-12-28T08:16:57;7.10;99.90
6865;DHT22;3471;49.678;8.388;2022-12-28T08:19:23;7.10;99.90
6865;DHT22;3471;49.678;8.388;2022-12-28T08:21:49;7.10;99.90
6865;DHT22;3471;49.678;8.388;2022-12-28T08:24:16;7.10;99.90
6865;DHT22;3471;49.678;8.388;2022-12-28T08:26:43;7.20;99.90
6865;DHT22;3471;49.678;8.388;2022-12-28T08:29:12;7.30;99.90
6865;DHT22;3471;49.678;8.388;2022-12-28T08:31:40;7.30;99.90
6865;DHT22;3471;49.678;8.388;2022-12-28T08:34:08;7.40;99.90
6865;DHT22;3471;49.678;8.388;2022-12-28T08:36:35;7.40;99.90
6865;DHT22;3471;49.678;8.388;2022-12-28T08:39:01;7.50;99.90
6865;DHT22;3471;49.678;8.388;2022-12-28T08:41:27;7.50;99.90
6865;DHT22;3471;49.678;8.388;2022-12-28T08:43:54;7.60;99.90
6865;DHT22;3471;49.678;8.388;2022-12-28T08:46:25;7.60;99.90
6865;DHT22;3471;49.678;8.388;2022-12-28T08:48:51;7.60;99.90
6865;DHT22;3471;49.678;8.388;2022-12-28T08:51:26;7.60;99.90
6865;DHT22;3471;49.678;8.388;2022-12-28T08:53:53;7.70;99.90
6865;DHT22;3471;49.678;8.388;2022-12-28T08:56:24;7.70;99.90
6865;DHT22;3471;49.678;8.388;2022-12-28T08:58:52;7.70;99.90
6865;DHT22;3471;49.678;8.388;2022-12-28T09:03:46;7.80;99.90
6865;DHT22;3471;49.678;8.388;2022-12-28T09:06:18;7.90;99.90
6865;DHT22;3471;49.678;8.388;2022-12-28T09:08:47;8.00;99.90
6865;DHT22;3471;49.678;8.388;2022-12-28T09:11:13;8.00;99.90
6865;DHT22;3471;49.678;8.388;2022-12-28T09:13:39;8.00;99.90
6865;DHT22;3471;49.678;8.388;2022-12-28T09:16:09;8.10;99.90
6865;DHT22;3471;49.678;8.388;2022-12-28T09:18:37;8.10;99.90
6865;DHT22;3471;49.678;8.388;2022-12-28T09:23:30;8.20;99.90
6865;DHT22;3471;49.678;8.388;2022-12-28T09:25:55;8.40;99.90
6865;DHT22;3471;49.678;8.388;2022-12-28T09:28:21;8.50;99.90
6865;DHT22;3471;49.678;8.388;2022-12-28T09:30:46;8.50;99.90
6865;DHT22;3471;49.678;8.388;2022-12-28T09:33:12;8.60;99.90
6865;DHT22;3471;49.678;8.388;2022-12-28T09:35:57;8.70;99.90
6865;DHT22;3471;49.678;8.388;2022-12-28T09:38:24;8.90;99.90
6865;DHT22;3471;49.678;8.388;2022-12-28T09:40:49;9.10;99.90
6865;DHT22;3471;49.678;8.388;2022-12-28T09:43:15;9.30;99.90
6865;DHT22;3471;49.678;8.388;2022-12-28T09:45:43;9.50;99.90
6865;DHT22;3471;49.678;8.388;2022-12-28T09:48:13;9.70;99.90
6865;DHT22;3471;49.678;8.388;2022-12-28T09:50:40;10.00;99.90
6865;DHT22;3471;49.678;8.388;2022-12-28T09:53:27;10.20;99.90
6865;DHT22;3471;49.678;8.388;2022-12-28T09:58:33;10.80;99.90
6865;DHT22;3471;49.678;8.388;2022-12-28T10:01:01;11.00;99.90
6865;DHT22;3471;49.678;8.388;2022-12-28T10:03:37;11.30;99.90
6865;DHT22;3471;49.678;8.388;2022-12-28T10:06:14;11.60;99.90
6865;DHT22;3471;49.678;8.388;2022-12-28T10:08:47;11.90;99.90
6865;DHT22;3471;49.678;8.388;2022-12-28T10:11:37;12.10;99.90
6865;DHT22;3471;49.678;8.388;2022-12-28T10:14:19;12.30;99.90
6865;DHT22;3471;49.678;8.388;2022-12-28T10:16:46;12.40;99.90
6865;DHT22;3471;49.678;8.388;2022-12-28T10:19:18;12.40;99.90
6865;DHT22;3471;49.678;8.388;2022-12-28T10:21:45;12.20;99.90
6865;DHT22;3471;49.678;8.388;2022-12-28T10:24:11;12.00;99.90
6865;DHT22;3471;49.678;8.388;2022-12-28T10:26:40;11.70;99.90
6865;DHT22;3471;49.678;8.388;2022-12-28T10:29:15;11.50;99.90
6865;DHT22;3471;49.678;8.388;2022-12-28T10:31:42;11.30;99.90
6865;DHT22;3471;49.678;8.388;2022-12-28T10:34:18;11.20;99.90
6865;DHT22;3471;49.678;8.388;2022-12-28T10:36:49;11.00;99.90
6865;DHT22;3471;49.678;8.388;2022-12-28T10:39:21;11.00;99.90
6865;DHT22;3471;49.678;8.388;2022-12-28T10:41:47;10.90;99.90
6865;DHT22;3471;49.678;8.388;2022-12-28T10:46:57;10.80;99.90
6865;DHT22;3471;49.678;8.388;2022-12-28T10:49:25;10.80;99.90
6865;DHT22;3471;49.678;8.388;2022-12-28T10:52:09;10.90;99.90
6865;DHT22;3471;49.678;8.388;2022-12-28T10:54:42;11.00;99.90
6865;DHT22;3471;49.678;8.388;2022-12-28T10:57:28;10.90;99.90
6865;DHT22;3471;49.678;8.388;2022-12-28T11:00:14;10.80;99.90
6865;DHT22;3471;49.678;8.388;2022-12-28T11:02:40;10.70;99.90
6865;DHT22;3471;49.678;8.388;2022-12-28T11:05:16;10.60;99.90
6865;DHT22;3471;49.678;8.388;2022-12-28T11:07:42;10.50;99.90
6865;DHT22;3471;49.678;8.388;2022-12-28T11:10:28;10.50;99.90
6865;DHT22;3471;49.678;8.388;2022-12-28T11:12:56;10.50;99.90
6865;DHT22;3471;49.678;8.388;2022-12-28T11:15:24;10.80;99.90
6865;DHT22;3471;49.678;8.388;2022-12-28T11:18:00;11.10;99.90
6865;DHT22;3471;49.678;8.388;2022-12-28T11:20:33;11.40;99.90
6865;DHT22;3471;49.678;8.388;2022-12-28T11:23:03;11.60;99.90
6865;DHT22;3471;49.678;8.388;2022-12-28T11:25:31;11.80;99.90
6865;DHT22;3471;49.678;8.388;2022-12-28T11:27:59;11.90;99.90
6865;DHT22;3471;49.678;8.388;2022-12-28T11:30:26;11.80;99.90
6865;DHT22;3471;49.678;8.388;2022-12-28T11:32:59;11.60;99.90
6865;DHT22;3471;49.678;8.388;2022-12-28T11:35:36;11.50;99.90
6865;DHT22;3471;49.678;8.388;2022-12-28T11:38:05;11.40;99.90
6865;DHT22;3471;49.678;8.388;2022-12-28T11:45:58;11.40;99.90
6865;DHT22;3471;49.678;8.388;2022-12-28T11:51:24;11.40;99.90
6865;DHT22;3471;49.678;8.388;2022-12-28T11:59:31;11.20;99.90
6865;DHT22;3471;49.678;8.388;2022-12-28T12:02:36;11.00;99.90
6865;DHT22;3471;49.678;8.388;2022-12-28T12:10:39;10.80;99.90
6865;DHT22;3471;49.678;8.388;2022-12-28T12:15:55;10.80;99.90
6865;DHT22;3471;49.678;8.388;2022-12-28T12:18:25;10.80;99.90
6865;DHT22;3471;49.678;8.388;2022-12-28T12:21:07;10.80;99.90
6865;DHT22;3471;49.678;8.388;2022-12-28T12:23:49;10.80;99.90
6865;DHT22;3471;49.678;8.388;2022-12-28T12:26:26;10.70;99.90
6865;DHT22;3471;49.678;8.388;2022-12-28T12:29:19;10.70;99.90
6865;DHT22;3471;49.678;8.388;2022-12-28T12:31:59;10.70;99.90
6865;DHT22;3471;49.678;8.388;2022-12-28T12:45:39;10.40;99.90
6865;DHT22;3471;49.678;8.388;2022-12-28T12:48:37;10.40;99.90
6865;DHT22;3471;49.678;8.388;2022-12-28T12:54:22;10.40;99.90
6865;DHT22;3471;49.678;8.388;2022-12-28T13:02:50;10.60;99.90
6865;DHT22;3471;49.678;8.388;2022-12-28T13:05:21;10.60;99.90
6865;DHT22;3471;49.678;8.388;2022-12-28T13:07:48;10.60;99.90
6865;DHT22;3471;49.678;8.388;2022-12-28T13:10:35;10.60;99.90
6865;DHT22;3471;49.678;8.388;2022-12-28T13:13:03;10.60;99.90
6865;DHT22;3471;49.678;8.388;2022-12-28T13:15:29;10.60;99.90
6865;DHT22;3471;49.678;8.388;2022-12-28T13:18:04;10.60;99.90
6865;DHT22;3471;49.678;8.388;2022-12-28T13:20:31;10.60;99.90
6865;DHT22;3471;49.678;8.388;2022-12-28T13:22:57;10.60;99.90
6865;DHT22;3471;49.678;8.388;2022-12-28T13:25:27;10.60;99.90
6865;DHT22;3471;49.678;8.388;2022-12-28T13:27:54;10.50;99.90
6865;DHT22;3471;49.678;8.388;2022-12-28T13:30:21;10.50;99.90
6865;DHT22;3471;49.678;8.388;2022-12-28T13:32:57;10.50;99.90
6865;DHT22;3471;49.678;8.388;2022-12-28T13:35:32;10.50;99.90
6865;DHT22;3471;49.678;8.388;2022-12-28T13:40:33;10.50;99.90
6865;DHT22;3471;49.678;8.388;2022-12-28T13:45:57;10.40;99.90
6865;DHT22;3471;49.678;8.388;2022-12-28T13:48:26;10.40;99.90
6865;DHT22;3471;49.678;8.388;2022-12-28T13:50:52;10.40;99.90
6865;DHT22;3471;49.678;8.388;2022-12-28T13:53:21;10.40;99.90
6865;DHT22;3471;49.678;8.388;2022-12-28T13:55:53;10.40;99.90
6865;DHT22;3471;49.678;8.388;2022-12-28T13:58:31;10.50;99.90
6865;DHT22;3471;49.678;8.388;2022-12-28T14:00:59;10.50;99.90
6865;DHT22;3471;49.678;8.388;2022-12-28T14:03:27;10.50;99.90
6865;DHT22;3471;49.678;8.388;2022-12-28T14:05:55;10.50;99.90
6865;DHT22;3471;49.678;8.388;2022-12-28T14:08:25;10.50;99.90
6865;DHT22;3471;49.678;8.388;2022-12-28T14:10:51;10.50;99.90
6865;DHT22;3471;49.678;8.388;2022-12-28T14:13:18;10.50;99.90
6865;DHT22;3471;49.678;8.388;2022-12-28T14:15:45;10.50;99.90
6865;DHT22;3471;49.678;8.388;2022-12-28T14:18:16;10.50;99.90
6865;DHT22;3471;49.678;8.388;2022-12-28T14:20:53;10.40;99.90
6865;DHT22;3471;49.678;8.388;2022-12-28T14:23:20;10.40;99.90
6865;DHT22;3471;49.678;8.388;2022-12-28T14:25:46;10.30;99.90
6865;DHT22;3471;49.678;8.388;2022-12-28T14:28:29;10.30;99.90
6865;DHT22;3471;49.678;8.388;2022-12-28T14:30:56;10.40;99.90
6865;DHT22;3471;49.678;8.388;2022-12-28T14:33:24;10.40;99.90
6865;DHT22;3471;49.678;8.388;2022-12-28T14:36:02;10.40;99.90
6865;DHT22;3471;49.678;8.388;2022-12-28T14:38:34;10.30;99.90
6865;DHT22;3471;49.678;8.388;2022-12-28T14:41:03;10.30;99.90
6865;DHT22;3471;49.678;8.388;2022-12-28T14:43:34;10.30;99.90
6865;DHT22;3471;49.678;8.388;2022-12-28T14:46:15;10.20;99.90
6865;DHT22;3471;49.678;8.388;2022-12-28T14:48:41;10.20;99.90
6865;DHT22;3471;49.678;8.388;2022-12-28T14:53:41;10.20;99.90
6865;DHT22;3471;49.678;8.388;2022-12-28T14:56:13;10.10;99.90
6865;DHT22;3471;49.678;8.388;2022-12-28T15:01:08;10.10;99.90
6865;DHT22;3471;49.678;8.388;2022-12-28T15:03:53;10.00;99.90
6865;DHT22;3471;49.678;8.388;2022-12-28T15:06:20;10.00;99.90
6865;DHT22;3471;49.678;8.388;2022-12-28T15:08:50;9.90;99.90
6865;DHT22;3471;49.678;8.388;2022-12-28T15:11:18;9.90;99.90
6865;DHT22;3471;49.678;8.388;2022-12-28T15:13:45;9.90;99.90
6865;DHT22;3471;49.678;8.388;2022-12-28T15:16:11;9.90;99.90
6865;DHT22;3471;49.678;8.388;2022-12-28T15:18:38;9.90;99.90
6865;DHT22;3471;49.678;8.388;2022-12-28T15:21:10;9.90;99.90
6865;DHT22;3471;49.678;8.388;2022-12-28T15:23:36;9.80;99.90
6865;DHT22;3471;49.678;8.388;2022-12-28T15:26:20;9.80;99.90
6865;DHT22;3471;49.678;8.388;2022-12-28T15:28:48;9.80;99.90
6865;DHT22;3471;49.678;8.388;2022-12-28T15:31:16;9.80;99.90
6865;DHT22;3471;49.678;8.388;2022-12-28T15:33:43;9.80;99.90
6865;DHT22;3471;49.678;8.388;2022-12-28T15:36:20;9.80;99.90
6865;DHT22;3471;49.678;8.388;2022-12-28T15:38:47;9.80;99.90
6865;DHT22;3471;49.678;8.388;2022-12-28T15:41:13;9.80;99.90
6865;DHT22;3471;49.678;8.388;2022-12-28T15:43:58;9.70;99.90
6865;DHT22;3471;49.678;8.388;2022-12-28T15:46:23;9.70;99.90
6865;DHT22;3471;49.678;8.388;2022-12-28T15:48:49;9.70;99.90
6865;DHT22;3471;49.678;8.388;2022-12-28T15:51:14;9.70;99.90
6865;DHT22;3471;49.678;8.388;2022-12-28T15:53:41;9.70;99.90
6865;DHT22;3471;49.678;8.388;2022-12-28T15:56:22;9.70;99.90
6865;DHT22;3471;49.678;8.388;2022-12-28T15:58:47;9.70;99.90
6865;DHT22;3471;49.678;8.388;2022-12-28T16:01:13;9.60;99.90
6865;DHT22;3471;49.678;8.388;2022-12-28T16:03:39;9.60;99.90
6865;DHT22;3471;49.678;8.388;2022-12-28T16:06:04;9.50;99.90
6865;DHT22;3471;49.678;8.388;2022-12-28T16:08:31;9.50;99.90
6865;DHT22;3471;49.678;8.388;2022-12-28T16:11:17;9.50;99.90
6865;DHT22;3471;49.678;8.388;2022-12-28T16:13:43;9.40;99.90
6865;DHT22;3471;49.678;8.388;2022-12-28T16:16:14;9.40;99.90
6865;DHT22;3471;49.678;8.388;2022-12-28T16:18:39;9.40;99.90
6865;DHT22;3471;49.678;8.388;2022-12-28T16:21:06;9.30;99.90
6865;DHT22;3471;49.678;8.388;2022-12-28T16:23:35;9.30;99.90
6865;DHT22;3471;49.678;8.388;2022-12-28T16:26:01;9.30;99.90
6865;DHT22;3471;49.678;8.388;2022-12-28T16:28:27;9.30;99.90
6865;DHT22;3471;49.678;8.388;2022-12-28T16:30:54;9.30;99.90
6865;DHT22;3471;49.678;8.388;2022-12-28T16:33:21;9.30;99.90
6865;DHT22;3471;49.678;8.388;2022-12-28T16:35:46;9.30;99.90
6865;DHT22;3471;49.678;8.388;2022-12-28T16:38:17;9.30;99.90
6865;DHT22;3471;49.678;8.388;2022-12-28T16:40:44;9.20;99.90
6865;DHT22;3471;49.678;8.388;2022-12-28T16:43:11;9.30;99.90
6865;DHT22;3471;49.678;8.388;2022-12-28T16:45:38;9.30;99.90
6865;DHT22;3471;49.678;8.388;2022-12-28T16:48:06;9.40;99.90
6865;DHT22;3471;49.678;8.388;2022-12-28T16:50:32;9.40;99.90
6865;DHT22;3471;49.678;8.388;2022-12-28T16:52:57;9.40;99.90
6865;DHT22;3471;49.678;8.388;2022-12-28T16:55:27;9.40;99.90
6865;DHT22;3471;49.678;8.388;2022-12-28T16:57:52;9.40;99.90
6865;DHT22;3471;49.678;8.388;2022-12-28T17:00:18;9.40;99.90
6865;DHT22;3471;49.678;8.388;2022-12-28T17:02:44;9.40;99.90
6865;DHT22;3471;49.678;8.388;2022-12-28T17:05:10;9.40;99.90
6865;DHT22;3471;49.678;8.388;2022-12-28T17:07:36;9.40;99.90
6865;DHT22;3471;49.678;8.388;2022-12-28T17:10:01;9.40;99.90
6865;DHT22;3471;49.678;8.388;2022-12-28T17:12:27;9.40;99.90
6865;DHT22;3471;49.678;8.388;2022-12-28T17:14:52;9.50;99.90
6865;DHT22;3471;49.678;8.388;2022-12-28T17:17:18;9.50;99.90
6865;DHT22;3471;49.678;8.388;2022-12-28T17:19:43;9.50;99.90
6865;DHT22;3471;49.678;8.388;2022-12-28T17:22:09;9.50;99.90
6865;DHT22;3471;49.678;8.388;2022-12-28T17:24:35;9.50;99.90
6865;DHT22;3471;49.678;8.388;2022-12-28T17:27:01;9.50;99.90
6865;DHT22;3471;49.678;8.388;2022-12-28T17:29:26;9.50;99.90
6865;DHT22;3471;49.678;8.388;2022-12-28T17:31:52;9.50;99.90
6865;DHT22;3471;49.678;8.388;2022-12-28T17:34:18;9.50;99.90
6865;DHT22;3471;49.678;8.388;2022-12-28T17:36:43;9.40;99.90
6865;DHT22;3471;49.678;8.388;2022-12-28T17:39:09;9.40;99.90
6865;DHT22;3471;49.678;8.388;2022-12-28T17:41:34;9.40;99.90
6865;DHT22;3471;49.678;8.388;2022-12-28T17:44:00;9.40;99.90
6865;DHT22;3471;49.678;8.388;2022-12-28T17:46:28;9.40;99.90
6865;DHT22;3471;49.678;8.388;2022-12-28T17:48:55;9.40;99.90
6865;DHT22;3471;49.678;8.388;2022-12-28T17:51:22;9.50;99.90
6865;DHT22;3471;49.678;8.388;2022-12-28T17:53:49;9.50;99.90
6865;DHT22;3471;49.678;8.388;2022-12-28T17:56:15;9.50;99.90
6865;DHT22;3471;49.678;8.388;2022-12-28T17:58:42;9.50;99.90
6865;DHT22;3471;49.678;8.388;2022-12-28T18:01:09;9.50;99.90
6865;DHT22;3471;49.678;8.388;2022-12-28T18:03:34;9.60;99.90
6865;DHT22;3471;49.678;8.388;2022-12-28T18:06:00;9.60;99.90
6865;DHT22;3471;49.678;8.388;2022-12-28T18:08:26;9.60;99.90
6865;DHT22;3471;49.678;8.388;2022-12-28T18:10:52;9.60;99.90
6865;DHT22;3471;49.678;8.388;2022-12-28T18:13:18;9.70;99.90